Columbus, Ohio
Current Conditions -  °F | °C
As of 2:51 AM on Sunday 23 Nov 2014 (Local Time) from KCMH Reporting Station
Overcast Overcast  
Wind Chill: 49°   Ceiling: 7000
Heat Index: 49°   Visibility: 10mi
Dew Point: 33°   Wind: 0mph
Humidity: 54%   Direction: NA
Pressure: 30.06"   Gusts: NA
Location:  39.96°N, 83°W
Report Text: KCMH 230751Z 00000KT 10SM BKN070 OVC080 09/01 A3006 RMK AO2 SLP181 T00940006 $
Loading
Personal Weather Stations






























Interactive Weather Map New forecast layout! Learn more

10-Day Weather Forecast

Advertisements
Track Severe Weather on mobile